Aviation

Port-au-Prince

FTHA31 MTPP 221200
FTHA31 MTPP 221200
TAF MTPP 221200Z 2212/2312 10007KT 9000 FEW020
FM221800 29010KR 9999 SCT024
PROB30 TEMPO 2300/2306 10010KT 6000 SHRA FEW026CB SCT026
BECMG 2307/2311 VRB02KT 9000 NSW FEW024=
NNN


Cap-Haïtien

FTHA31 MTCH 221200
FTHA31 MTCH 221200
TAF MTCH 221200Z 2212/2212 VRB02KT 9000 FEW020
FM221500 01012KT 9999 SCT024
PROB30 TEMPO 2300/2305 10010KT 6000 SHRA FEW026CB
BECMG 2306/2310 VRB02KT 9000 NSW FEW024=
NNN